Time;durP1;ratioP1;P1;durP2;ratioP2;P2;SDS_P1;SDS_P2;PMS_P1;PMS_P2;Temp;Humidity;BMP_temperature;BMP_pressure;BME280_temperature;BME280_humidity;BME280_pressure;Samples;Min_cycle;Max_cycle;Signal;HPM_P1;HPM_P2
2022/01/01 00:01:34;;;;;;;84.75;69.13;;;-2.20;95.00;-2.80;96973.00;;;;4934526;28;88218;-62
2022/01/01 00:04:00;;;;;;;90.75;68.72;;;-2.20;95.10;-2.70;96986.00;;;;4918541;28;88189;-62
2022/01/01 00:06:27;;;;;;;72.47;59.67;;;-2.20;95.00;-2.70;96982.00;;;;4936075;28;87370;-62
2022/01/01 00:08:53;;;;;;;88.80;68.70;;;-2.20;95.00;-2.70;96977.00;;;;4936895;28;87248;-63
2022/01/01 00:11:19;;;;;;;91.70;68.18;;;-2.20;95.00;-2.70;96979.00;;;;4936392;28;88992;-62
2022/01/01 00:13:45;;;;;;;83.10;64.78;;;-2.20;95.00;-2.70;96969.00;;;;4937008;28;88207;-61
2022/01/01 00:16:11;;;;;;;74.05;56.58;;;-2.10;95.10;-2.70;96970.00;;;;4937002;28;87427;-62
2022/01/01 00:18:38;;;;;;;72.90;56.63;;;-2.10;95.10;-2.70;96966.00;;;;4935524;28;88616;-61
2022/01/01 00:21:05;;;;;;;79.10;56.83;;;-2.10;95.10;-2.70;96965.00;;;;4937027;28;87585;-63
2022/01/01 00:23:33;;;;;;;85.30;60.83;;;-2.10;95.10;-2.70;96963.00;;;;4919599;28;87327;-61
2022/01/01 00:25:59;;;;;;;71.68;56.25;;;-2.10;95.10;-2.70;96970.00;;;;4936791;28;87386;-62
2022/01/01 00:28:25;;;;;;;71.68;54.55;;;-2.20;95.60;-2.70;96968.00;;;;4936785;28;87966;-62
2022/01/01 00:30:51;;;;;;;66.32;52.08;;;-2.10;95.30;-2.70;96970.00;;;;4936496;28;87081;-62
2022/01/01 00:33:17;;;;;;;60.08;47.95;;;-2.10;95.30;-2.60;96960.00;;;;4936987;28;87073;-62
2022/01/01 00:35:43;;;;;;;60.97;48.10;;;-2.10;95.30;-2.60;96966.00;;;;4937315;28;86821;-61
2022/01/01 00:38:09;;;;;;;51.35;41.80;;;-2.10;95.30;-2.60;96962.00;;;;4936275;28;88002;-61
2022/01/01 00:40:35;;;;;;;50.97;43.47;;;-2.00;95.40;-2.60;96943.00;;;;4935695;28;88059;-60
2022/01/01 00:43:02;;;;;;;56.63;44.35;;;-2.00;95.40;-2.60;96941.00;;;;4934526;28;89008;-62
2022/01/01 00:45:28;;;;;;;47.22;40.88;;;-2.00;95.30;-2.60;96942.00;;;;4936435;28;87507;-62
2022/01/01 00:47:54;;;;;;;47.00;39.30;;;-2.00;95.30;-2.50;96947.00;;;;4935956;28;87521;-63
2022/01/01 00:50:20;;;;;;;49.17;39.58;;;-2.00;95.30;-2.50;96937.00;;;;4919416;28;90406;-62
2022/01/01 00:52:49;;;;;;;50.72;40.75;;;-2.00;95.30;-2.50;96932.00;;;;4936923;28;87716;-62
2022/01/01 00:55:15;;;;;;;46.00;38.35;;;-2.00;95.40;-2.50;96942.00;;;;4936410;28;87288;-62
2022/01/01 00:57:41;;;;;;;44.22;37.72;;;-1.90;95.30;-2.50;96929.00;;;;4936701;28;87543;-63
2022/01/01 01:00:08;;;;;;;41.38;34.67;;;-1.90;95.40;-2.50;96932.00;;;;4936441;28;88993;-63
2022/01/01 01:02:35;;;;;;;49.10;38.53;;;-1.90;95.40;-2.40;96934.00;;;;4935589;28;87998;-62
2022/01/01 01:05:01;;;;;;;48.15;37.78;;;-1.90;95.30;-2.40;96925.00;;;;4936813;28;87061;-62
2022/01/01 01:07:27;;;;;;;49.50;40.28;;;-1.90;95.30;-2.40;96931.00;;;;4935946;28;88567;-62
2022/01/01 01:09:53;;;;;;;44.15;36.88;;;-1.80;95.40;-2.40;96920.00;;;;4927170;28;88261;-62
2022/01/01 01:12:24;;;;;;;46.38;37.70;;;-1.80;95.40;-2.40;96918.00;;;;4918163;28;87723;-62
2022/01/01 01:14:52;;;;;;;46.72;36.85;;;-1.80;95.50;-2.40;96915.00;;;;4935679;28;88092;-61
2022/01/01 01:17:18;;;;;;;44.65;35.38;;;-1.80;95.50;-2.40;96914.00;;;;4939621;28;87758;-61
2022/01/01 01:19:44;;;;;;;40.90;35.58;;;-1.80;95.50;-2.40;96927.00;;;;4939794;28;88008;-62
2022/01/01 01:22:11;;;;;;;38.75;32.20;;;-1.80;95.50;-2.40;96915.00;;;;4922823;28;87388;-61
2022/01/01 01:24:39;;;;;;;39.33;33.80;;;-1.80;95.40;-2.40;96916.00;;;;4939398;28;86344;-61
2022/01/01 01:27:06;;;;;;;38.67;33.08;;;-1.80;95.50;-2.30;96914.00;;;;4939288;28;87504;-61
2022/01/01 01:29:37;;;;;;;37.30;31.83;;;-1.80;95.50;-2.30;96907.00;;;;4938792;28;90341;-62
2022/01/01 01:32:03;;;;;;;35.90;30.53;;;-1.80;95.40;-2.30;96918.00;;;;4939130;28;88131;-62
2022/01/01 01:34:31;;;;;;;35.15;30.60;;;-1.80;95.40;-2.30;96911.00;;;;4929416;28;87775;-62
2022/01/01 01:36:57;;;;;;;35.88;31.10;;;-1.80;95.50;-2.30;96909.00;;;;4938183;28;87848;-62
2022/01/01 01:39:23;;;;;;;38.60;31.42;;;-1.80;95.50;-2.30;96913.00;;;;4929992;28;87560;-61
2022/01/01 01:41:51;;;;;;;35.15;31.17;;;-1.70;95.50;-2.30;96914.00;;;;4936464;28;88360;-62
2022/01/01 01:44:41;;;;;;;41.95;34.30;;;-1.80;95.40;-2.30;96912.00;;;;4938387;28;87790;-62
2022/01/01 01:47:14;;;;;;;37.25;30.73;;;-1.80;95.30;-2.30;96917.00;;;;4921679;28;88829;-61
2022/01/01 01:49:43;;;;;;;39.83;32.42;;;-1.80;95.40;-2.30;96909.00;;;;4939807;28;87520;-62
2022/01/01 01:52:10;;;;;;;38.22;32.15;;;-1.70;95.50;-2.30;96905.00;;;;4938464;28;87039;-62
2022/01/01 01:54:36;;;;;;;38.78;31.45;;;-1.70;95.50;-2.30;96902.00;;;;4938999;28;87746;-61
2022/01/01 01:57:04;;;;;;;41.30;29.80;;;-1.70;95.50;-2.30;96910.00;;;;4921578;28;90223;-62
2022/01/01 01:59:30;;;;;;;39.00;30.92;;;-1.70;95.50;-2.30;96905.00;;;;4939076;28;88360;-61
2022/01/01 02:01:56;;;;;;;32.13;27.90;;;-1.70;95.50;-2.20;96915.00;;;;4938536;28;87111;-61
2022/01/01 02:04:22;;;;;;;37.35;31.27;;;-1.70;95.50;-2.20;96912.00;;;;4938727;28;88003;-62
2022/01/01 02:06:49;;;;;;;35.22;29.35;;;-1.70;95.50;-2.20;96913.00;;;;4939555;28;88261;-62
2022/01/01 02:09:15;;;;;;;38.47;29.52;;;-1.70;95.50;-2.20;96909.00;;;;4921630;28;88041;-61
2022/01/01 02:11:42;;;;;;;34.97;28.98;;;-1.70;95.50;-2.20;96900.00;;;;4938578;28;88071;-62
2022/01/01 02:19:28;;;;;;;43.08;31.98;;;-1.70;95.50;-2.20;96910.00;;;;4936862;28;87212;-59
2022/01/01 02:22:00;;;;;;;38.55;29.40;;;-1.70;95.50;-2.20;96905.00;;;;4938883;28;88280;-63
2022/01/01 02:24:26;;;;;;;48.88;35.30;;;-1.70;95.50;-2.20;96902.00;;;;4938687;28;86990;-59
2022/01/01 02:26:53;;;;;;;46.70;33.58;;;-1.70;95.60;-2.20;96905.00;;;;4937966;28;87774;-60
2022/01/01 02:29:20;;;;;;;42.47;34.45;;;-1.70;95.70;-2.20;96905.00;;;;4938620;28;89055;-61
2022/01/01 02:31:46;;;;;;;42.95;31.75;;;-1.70;96.10;-2.20;96898.00;;;;4922148;28;87116;-62
2022/01/01 02:34:12;;;;;;;36.60;29.98;;;-1.70;95.80;-2.20;96905.00;;;;4939064;28;87476;-59
2022/01/01 02:36:42;;;;;;;40.47;31.50;;;-1.70;96.00;-2.20;96892.00;;;;4938290;28;87926;-62
2022/01/01 02:39:18;;;;;;;42.90;31.00;;;-1.70;96.00;-2.20;96899.00;;;;4938426;28;87421;-60
2022/01/01 02:41:46;;;;;;;42.28;32.10;;;-1.60;96.10;-2.20;96904.00;;;;4922206;28;87096;-61
2022/01/01 02:44:13;;;;;;;49.55;33.00;;;-1.60;96.10;-2.10;96898.00;;;;4938689;28;87067;-63
2022/01/01 02:46:39;;;;;;;41.95;31.45;;;-1.60;96.10;-2.10;96899.00;;;;4937486;28;89062;-59
2022/01/01 02:49:06;;;;;;;42.92;32.03;;;-1.60;96.20;-2.10;96901.00;;;;4921362;28;87237;-59
2022/01/01 02:51:33;;;;;;;38.22;29.90;;;-1.60;96.10;-2.10;96904.00;;;;4938454;28;86996;-58
2022/01/01 02:53:59;;;;;;;40.65;30.55;;;-1.60;96.20;-2.10;96900.00;;;;4938201;28;87131;-61
2022/01/01 02:56:26;;;;;;;46.92;33.88;;;-1.60;96.30;-2.10;96900.00;;;;4938346;28;87785;-62
2022/01/01 02:58:53;;;;;;;40.58;29.83;;;-1.60;96.30;-2.10;96900.00;;;;4937914;28;87360;-63
2022/01/01 03:01:19;;;;;;;45.92;31.08;;;-1.60;96.30;-2.10;96897.00;;;;4920411;28;87939;-62
2022/01/01 03:03:47;;;;;;;48.38;34.38;;;-1.60;96.30;-2.10;96903.00;;;;4938685;28;86422;-60
2022/01/01 03:06:19;;;;;;;53.65;34.88;;;-1.60;96.30;-2.10;96896.00;;;;4937477;28;87954;-60
2022/01/01 03:08:54;;;;;;;57.80;37.38;;;-1.50;96.30;-2.10;96891.00;;;;4937987;28;88840;-60
2022/01/01 03:11:21;;;;;;;51.88;34.42;;;-1.50;96.40;-2.10;96880.00;;;;4938033;28;88805;-60
2022/01/01 03:13:47;;;;;;;45.30;32.90;;;-1.50;96.30;-2.10;96884.00;;;;4938171;28;87880;-60
2022/01/01 03:16:14;;;;;;;47.80;33.55;;;-1.50;96.40;-2.00;96888.00;;;;4937896;28;88990;-60
2022/01/01 03:18:41;;;;;;;65.20;37.80;;;-1.50;96.50;-2.00;96888.00;;;;4937070;28;89365;-61
2022/01/01 03:21:08;;;;;;;67.20;38.38;;;-1.50;96.50;-2.00;96885.00;;;;4937922;28;87051;-60
2022/01/01 03:23:34;;;;;;;56.85;35.08;;;-1.50;96.40;-2.00;96886.00;;;;4936953;28;87034;-60
2022/01/01 03:26:01;;;;;;;57.33;37.67;;;-1.50;96.60;-2.00;96892.00;;;;4937192;28;87711;-60
2022/01/01 03:28:27;;;;;;;55.78;34.60;;;-1.50;96.60;-2.00;96890.00;;;;4937462;28;87966;-60
2022/01/01 03:30:54;;;;;;;59.00;37.58;;;-1.50;96.70;-2.00;96886.00;;;;4938292;28;87958;-59
2022/01/01 03:33:20;;;;;;;57.95;36.15;;;-1.50;96.70;-2.00;96880.00;;;;4938428;28;87181;-63
2022/01/01 03:35:49;;;;;;;70.65;40.05;;;-1.50;96.70;-2.00;96874.00;;;;4936263;28;89404;-62
2022/01/01 03:38:17;;;;;;;45.60;29.77;;;-1.50;96.90;-2.00;96879.00;;;;4936366;28;88362;-58
2022/01/01 03:40:43;;;;;;;42.05;30.48;;;-1.40;97.10;-2.00;96875.00;;;;4936799;28;87066;-61
2022/01/01 03:43:09;;;;;;;52.50;30.83;;;-1.40;97.10;-1.90;96875.00;;;;4921154;28;88137;-62
2022/01/01 03:45:36;;;;;;;46.42;32.03;;;-1.40;97.10;-1.90;96877.00;;;;4936524;28;87788;-62
2022/01/01 03:48:05;;;;;;;39.50;28.70;;;-1.40;97.10;-1.90;96869.00;;;;4920207;28;89797;-62
2022/01/01 03:50:32;;;;;;;52.67;32.30;;;-1.40;97.00;-1.80;96869.00;;;;4937605;28;87066;-62
2022/01/01 03:52:58;;;;;;;42.47;28.83;;;-1.40;97.00;-1.90;96873.00;;;;4938056;28;87199;-62
2022/01/01 03:55:25;;;;;;;44.95;29.90;;;-1.40;96.90;-1.90;96868.00;;;;4937237;28;88113;-61
2022/01/01 03:57:51;;;;;;;39.58;28.92;;;-1.40;96.90;-1.90;96875.00;;;;4928598;28;87555;-62
2022/01/01 04:00:17;;;;;;;46.72;30.23;;;-1.30;97.00;-1.80;96872.00;;;;4936621;28;89004;-62
2022/01/01 04:02:43;;;;;;;49.28;29.00;;;-1.30;97.00;-1.80;96879.00;;;;4937532;28;87723;-61
2022/01/01 04:05:10;;;;;;;43.58;31.90;;;-1.30;97.00;-1.80;96871.00;;;;4937022;28;87858;-62
2022/01/01 04:07:36;;;;;;;48.03;32.08;;;-1.20;97.00;-1.70;96884.00;;;;4937476;28;88011;-62
2022/01/01 04:10:03;;;;;;;64.60;36.63;;;-1.20;96.90;-1.70;96882.00;;;;4936927;28;87948;-61
2022/01/01 04:12:29;;;;;;;53.63;32.08;;;-1.30;96.80;-1.80;96879.00;;;;4920377;28;87554;-62
2022/01/01 04:14:57;;;;;;;51.25;31.10;;;-1.30;96.90;-1.70;96879.00;;;;4936769;28;88321;-62
2022/01/01 04:17:23;;;;;;;47.70;30.05;;;-1.30;96.80;-1.70;96881.00;;;;4937864;28;87544;-59
2022/01/01 04:19:49;;;;;;;39.83;28.00;;;-1.30;96.90;-1.70;96875.00;;;;4937066;28;87142;-59
2022/01/01 04:22:16;;;;;;;44.65;28.38;;;-1.30;96.90;-1.70;96887.00;;;;4937297;28;87381;-59
2022/01/01 04:24:42;;;;;;;45.08;30.45;;;-1.20;97.00;-1.70;96877.00;;;;4936321;28;88787;-60
2022/01/01 04:27:09;;;;;;;44.80;26.75;;;-1.20;96.90;-1.70;96881.00;;;;4920514;28;89384;-60
2022/01/01 04:29:36;;;;;;;36.83;27.35;;;-1.20;96.90;-1.70;96891.00;;;;4911228;28;88237;-60
2022/01/01 04:32:03;;;;;;;36.80;26.92;;;-1.20;96.90;-1.70;96883.00;;;;4936999;28;87034;-59
2022/01/01 04:34:29;;;;;;;44.35;28.95;;;-1.20;96.90;-1.70;96878.00;;;;4937188;28;87713;-60
2022/01/01 04:37:06;;;;;;;35.22;26.00;;;-1.20;96.80;-1.70;96896.00;;;;4913306;28;87957;-60
2022/01/01 04:39:32;;;;;;;36.97;26.65;;;-1.20;96.70;-1.70;96887.00;;;;4936573;28;87718;-60
2022/01/01 04:41:58;;;;;;;36.20;26.90;;;-1.20;96.70;-1.70;96897.00;;;;4937145;28;86607;-60
2022/01/01 04:44:24;;;;;;;32.50;26.00;;;-1.20;96.80;-1.70;96888.00;;;;4919752;28;88348;-60
2022/01/01 04:46:51;;;;;;;36.35;27.25;;;-1.20;96.70;-1.70;96885.00;;;;4936456;28;87637;-59
2022/01/01 04:49:17;;;;;;;39.35;26.27;;;-1.20;96.70;-1.70;96888.00;;;;4937572;28;88982;-59
2022/01/01 04:51:43;;;;;;;37.63;26.38;;;-1.10;96.60;-1.70;96894.00;;;;4940365;28;87988;-59
2022/01/01 04:54:15;;;;;;;37.92;27.20;;;-1.20;96.50;-1.70;96896.00;;;;4923688;28;87980;-59
2022/01/01 04:56:47;;;;;;;42.08;25.58;;;-1.20;96.50;-1.70;96894.00;;;;4937967;28;87522;-59
2022/01/01 04:59:16;;;;;;;37.55;26.85;;;-1.20;96.50;-1.70;96898.00;;;;4938372;28;87244;-57
2022/01/01 05:01:43;;;;;;;38.40;26.88;;;-1.20;96.50;-1.70;96897.00;;;;4938937;28;87971;-61
2022/01/01 05:04:10;;;;;;;34.00;26.00;;;-1.20;96.50;-1.70;96890.00;;;;4939775;28;88209;-63
2022/01/01 05:06:36;;;;;;;37.78;25.65;;;-1.20;96.40;-1.70;96891.00;;;;4940300;28;87491;-61
2022/01/01 05:09:03;;;;;;;37.80;26.73;;;-1.20;96.40;-1.70;96890.00;;;;4939660;28;86976;-62
2022/01/01 05:11:29;;;;;;;37.25;25.95;;;-1.20;96.40;-1.60;96891.00;;;;4940860;28;87691;-60
2022/01/01 05:13:55;;;;;;;36.78;25.85;;;-1.10;96.40;-1.70;96884.00;;;;4939567;28;88673;-59
2022/01/01 05:16:22;;;;;;;35.63;25.42;;;-1.10;96.40;-1.60;96890.00;;;;4940266;28;88412;-62
2022/01/01 05:18:48;;;;;;;32.80;23.40;;;-1.10;96.40;-1.60;96896.00;;;;4939238;28;88292;-62
2022/01/01 05:21:14;;;;;;;29.23;21.15;;;-1.10;96.40;-1.60;96898.00;;;;4940529;28;86970;-62
2022/01/01 05:23:40;;;;;;;30.83;23.67;;;-1.10;96.30;-1.60;96907.00;;;;4939112;28;87793;-61
2022/01/01 05:26:06;;;;;;;29.63;21.95;;;-1.10;96.20;-1.60;96895.00;;;;4939980;28;88185;-62
2022/01/01 05:28:33;;;;;;;35.80;23.00;;;-1.10;96.30;-1.60;96904.00;;;;4939365;28;88019;-62
2022/01/01 05:30:59;;;;;;;30.30;23.42;;;-1.10;96.20;-1.60;96914.00;;;;4940164;28;87165;-59
2022/01/01 05:33:25;;;;;;;29.10;22.48;;;-1.10;96.10;-1.60;96915.00;;;;4937887;28;87397;-60
2022/01/01 05:35:51;;;;;;;24.30;20.08;;;-1.10;96.10;-1.60;96916.00;;;;4937512;28;87564;-59
2022/01/01 05:38:17;;;;;;;25.38;20.75;;;-1.10;96.00;-1.60;96915.00;;;;4913184;28;88431;-60
2022/01/01 05:40:43;;;;;;;29.45;21.75;;;-1.10;95.90;-1.60;96919.00;;;;4921304;28;88235;-60
2022/01/01 05:43:13;;;;;;;27.15;21.30;;;-1.10;95.80;-1.60;96917.00;;;;4920505;28;88549;-61
2022/01/01 05:45:43;;;;;;;25.27;19.75;;;-1.10;95.80;-1.60;96916.00;;;;4937304;28;87481;-64
2022/01/01 05:48:10;;;;;;;22.92;18.77;;;-1.10;95.80;-1.70;96923.00;;;;4937505;28;87807;-64
2022/01/01 05:50:37;;;;;;;25.98;18.10;;;-1.10;95.80;-1.70;96927.00;;;;4921087;28;87416;-64
2022/01/01 05:53:03;;;;;;;25.67;18.75;;;-1.20;95.60;-1.70;96928.00;;;;4938719;28;87602;-64
2022/01/01 05:55:29;;;;;;;22.58;18.60;;;-1.10;95.60;-1.60;96931.00;;;;4938726;28;87333;-63
2022/01/01 05:57:55;;;;;;;25.33;20.60;;;-1.10;95.50;-1.60;96933.00;;;;4939187;28;87493;-61
2022/01/01 06:00:21;;;;;;;25.17;19.98;;;-1.10;95.40;-1.60;96929.00;;;;4920940;28;87331;-65
2022/01/01 06:02:47;;;;;;;22.33;18.05;;;-1.10;95.40;-1.60;96928.00;;;;4936777;28;89529;-62
2022/01/01 06:05:13;;;;;;;24.40;17.98;;;-1.10;95.40;-1.60;96927.00;;;;4936648;28;88233;-62
2022/01/01 06:07:39;;;;;;;24.95;19.63;;;-1.10;95.30;-1.60;96928.00;;;;4937429;28;87924;-62
2022/01/01 06:10:06;;;;;;;24.65;19.55;;;-1.10;95.20;-1.60;96916.00;;;;4937212;28;87989;-62
2022/01/01 06:12:32;;;;;;;29.70;19.83;;;-1.10;95.20;-1.60;96922.00;;;;4937160;28;88157;-61
2022/01/01 06:14:58;;;;;;;24.52;20.58;;;-1.10;95.20;-1.60;96917.00;;;;4937008;28;87460;-61
2022/01/01 06:17:24;;;;;;;23.65;18.48;;;-1.00;95.10;-1.60;96925.00;;;;4937630;28;87255;-61
2022/01/01 06:19:50;;;;;;;23.60;19.80;;;-1.00;95.10;-1.60;96925.00;;;;4937326;28;86580;-60
2022/01/01 06:22:17;;;;;;;24.50;19.83;;;-1.10;94.90;-1.50;96929.00;;;;4936578;28;87934;-59
2022/01/01 06:24:43;;;;;;;25.55;20.05;;;-1.00;95.00;-1.50;96931.00;;;;4936946;28;87668;-60
2022/01/01 06:27:09;;;;;;;22.38;19.02;;;-1.00;95.00;-1.50;96922.00;;;;4936919;28;88281;-62
2022/01/01 06:29:35;;;;;;;25.45;19.65;;;-1.00;94.90;-1.50;96927.00;;;;4936685;28;87593;-61
2022/01/01 06:32:01;;;;;;;23.40;18.55;;;-1.00;94.90;-1.50;96935.00;;;;4936909;28;87643;-61
2022/01/01 06:34:27;;;;;;;27.30;19.33;;;-1.00;94.90;-1.50;96933.00;;;;4934724;28;88494;-61
2022/01/01 06:36:53;;;;;;;25.42;20.35;;;-1.00;94.90;-1.50;96939.00;;;;4936838;28;86998;-62
2022/01/01 06:39:19;;;;;;;29.52;19.27;;;-1.00;94.80;-1.50;96919.00;;;;4938631;28;87203;-62
2022/01/01 06:41:45;;;;;;;25.02;18.98;;;-1.00;94.80;-1.50;96936.00;;;;4937776;28;88064;-63
2022/01/01 06:44:11;;;;;;;24.45;18.75;;;-1.00;94.70;-1.40;96935.00;;;;4938606;28;88900;-62
2022/01/01 06:46:37;;;;;;;23.63;18.05;;;-1.00;94.70;-1.50;96934.00;;;;4936518;28;87862;-62
2022/01/01 06:49:03;;;;;;;26.20;19.05;;;-1.00;94.70;-1.50;96947.00;;;;4938164;28;87605;-62
2022/01/01 06:51:32;;;;;;;24.08;18.45;;;-1.00;94.60;-1.40;96930.00;;;;4937550;28;88874;-61
2022/01/01 06:53:59;;;;;;;27.60;19.40;;;-0.90;94.70;-1.40;96927.00;;;;4937378;28;88427;-62
2022/01/01 06:56:25;;;;;;;22.85;18.15;;;-0.90;94.70;-1.40;96933.00;;;;4938348;28;87162;-63
2022/01/01 06:58:51;;;;;;;23.63;18.73;;;-0.90;94.60;-1.40;96942.00;;;;4938542;28;87216;-62
2022/01/01 07:01:17;;;;;;;23.80;19.65;;;-0.90;94.60;-1.40;96933.00;;;;4937378;28;87659;-62
2022/01/01 07:03:43;;;;;;;22.83;18.58;;;-0.90;94.50;-1.40;96935.00;;;;4938421;28;88145;-62
2022/01/01 07:06:09;;;;;;;23.15;18.85;;;-0.90;94.50;-1.40;96938.00;;;;4937885;28;88090;-62
2022/01/01 07:08:35;;;;;;;22.48;18.50;;;-0.90;94.50;-1.30;96937.00;;;;4938284;28;87409;-62
2022/01/01 07:11:01;;;;;;;25.70;19.30;;;-0.90;94.40;-1.40;96936.00;;;;4938064;28;87789;-62
2022/01/01 07:13:27;;;;;;;23.52;19.05;;;-0.90;94.30;-1.40;96922.00;;;;4938565;28;87914;-62
2022/01/01 07:15:53;;;;;;;22.30;18.42;;;-0.90;94.20;-1.30;96929.00;;;;4920320;28;88559;-62
2022/01/01 07:18:19;;;;;;;23.80;19.58;;;-0.90;94.20;-1.30;96934.00;;;;4938002;28;87491;-62
2022/01/01 07:20:45;;;;;;;26.60;19.27;;;-0.80;94.20;-1.30;96932.00;;;;4937052;28;88076;-62
2022/01/01 07:23:11;;;;;;;21.45;17.88;;;-0.90;94.10;-1.30;96934.00;;;;4937768;28;88081;-62
2022/01/01 07:25:37;;;;;;;20.15;16.25;;;-0.80;94.20;-1.30;96932.00;;;;4937482;28;87866;-63
2022/01/01 07:28:03;;;;;;;20.60;17.55;;;-0.80;94.10;-1.20;96923.00;;;;4937794;28;87979;-62
2022/01/01 07:30:30;;;;;;;25.63;16.92;;;-0.80;93.70;-1.20;96924.00;;;;4937699;28;87981;-61
2022/01/01 07:32:56;;;;;;;20.67;17.85;;;-0.70;93.60;-1.20;96928.00;;;;4937217;28;88519;-61
2022/01/01 07:35:23;;;;;;;23.48;18.67;;;-0.70;93.60;-1.20;96932.00;;;;4937723;28;87774;-63
2022/01/01 07:37:49;;;;;;;23.83;18.27;;;-0.70;93.60;-1.20;96929.00;;;;4937650;28;87400;-63
2022/01/01 07:40:17;;;;;;;21.88;17.48;;;-0.70;93.60;-1.20;96936.00;;;;4919347;28;88723;-61
2022/01/01 07:42:45;;;;;;;23.40;17.90;;;-0.70;93.60;-1.20;96933.00;;;;4936553;28;88369;-62
2022/01/01 07:45:13;;;;;;;20.25;16.70;;;-0.70;93.60;-1.10;96940.00;;;;4936980;28;87878;-62
2022/01/01 07:47:39;;;;;;;18.52;16.52;;;-0.70;93.50;-1.10;96934.00;;;;4937358;28;87494;-62
2022/01/01 07:50:08;;;;;;;20.67;16.67;;;-0.60;93.50;-1.10;96949.00;;;;4937461;28;87751;-63
2022/01/01 07:52:34;;;;;;;19.67;16.65;;;-0.60;93.10;-1.10;96943.00;;;;4937096;28;88002;-63
2022/01/01 07:55:00;;;;;;;30.23;17.40;;;-0.60;92.90;-1.10;96939.00;;;;4936905;28;87148;-63
2022/01/01 07:57:26;;;;;;;21.27;16.70;;;-0.60;93.00;-1.10;96950.00;;;;4937658;28;87418;-62
2022/01/01 07:59:52;;;;;;;19.90;16.77;;;-0.60;93.30;-1.10;96952.00;;;;4937704;28;88016;-63
2022/01/01 08:02:18;;;;;;;20.00;16.23;;;-0.60;93.00;-1.00;96944.00;;;;4937497;28;88046;-63
2022/01/01 08:04:45;;;;;;;19.30;15.10;;;-0.60;93.00;-1.00;96938.00;;;;4936709;28;88919;-63
2022/01/01 08:07:11;;;;;;;21.75;16.05;;;-0.50;93.00;-0.90;96940.00;;;;4937088;28;87975;-62
2022/01/01 08:09:38;;;;;;;20.08;15.45;;;-0.40;92.80;-0.90;96950.00;;;;4937133;28;88044;-62
2022/01/01 08:12:07;;;;;;;21.90;16.55;;;-0.40;92.80;-0.80;96954.00;;;;4936697;28;87333;-63
2022/01/01 08:14:33;;;;;;;23.85;16.27;;;-0.40;92.60;-0.90;96955.00;;;;4935261;28;87175;-62
2022/01/01 08:17:05;;;;;;;17.08;14.52;;;-0.40;92.60;-0.90;96956.00;;;;4936859;28;87549;-62
2022/01/01 08:19:31;;;;;;;21.55;17.00;;;-0.40;92.10;-0.90;96947.00;;;;4936844;28;88063;-61
2022/01/01 08:21:58;;;;;;;17.30;13.85;;;-0.40;92.20;-0.90;96953.00;;;;4920597;28;87393;-62
2022/01/01 08:24:24;;;;;;;18.60;13.38;;;-0.40;92.10;-0.90;96955.00;;;;4935635;28;87811;-61
2022/01/01 08:26:51;;;;;;;18.95;12.98;;;-0.40;92.10;-0.80;96953.00;;;;4936854;28;88148;-62
2022/01/01 08:29:18;;;;;;;17.02;12.45;;;-0.40;92.00;-0.90;96970.00;;;;4935843;28;88657;-61
2022/01/01 08:31:44;;;;;;;17.08;12.05;;;-0.40;91.80;-0.90;96960.00;;;;4937065;28;89408;-63
2022/01/01 08:34:10;;;;;;;19.30;13.32;;;-0.40;91.70;-0.90;96959.00;;;;4936978;28;88193;-63
2022/01/01 08:36:36;;;;;;;15.10;11.15;;;-0.40;91.80;-0.90;96966.00;;;;4937239;28;87531;-62
2022/01/01 08:39:05;;;;;;;12.60;11.20;;;-0.50;91.60;-1.00;96963.00;;;;4936815;28;89003;-63
2022/01/01 08:41:32;;;;;;;13.02;11.63;;;-0.50;91.80;-1.00;96960.00;;;;4936213;28;88075;-62
2022/01/01 08:43:58;;;;;;;15.80;12.18;;;-0.50;91.80;-1.00;96957.00;;;;4936957;28;87475;-62
2022/01/01 08:46:24;;;;;;;13.90;11.05;;;-0.50;91.90;-1.00;96957.00;;;;4936977;28;86337;-63
2022/01/01 08:48:50;;;;;;;15.20;10.65;;;-0.60;91.70;-1.00;96970.00;;;;4935965;28;88755;-63
2022/01/01 08:51:22;;;;;;;12.13;10.32;;;-0.60;91.80;-1.10;96960.00;;;;4936617;28;87404;-62
2022/01/01 08:53:49;;;;;;;12.88;11.10;;;-0.60;91.80;-1.00;96952.00;;;;4919123;28;88348;-62
2022/01/01 08:56:15;;;;;;;15.38;11.43;;;-0.60;91.70;-1.00;96951.00;;;;4937158;28;87431;-59
2022/01/01 08:58:42;;;;;;;12.35;10.70;;;-0.50;91.70;-1.00;96951.00;;;;4936423;28;87864;-58
2022/01/01 09:01:09;;;;;;;11.40;9.93;;;-0.50;91.40;-0.90;96950.00;;;;4936464;28;87360;-57
2022/01/01 09:03:36;;;;;;;10.90;9.38;;;-0.50;91.10;-1.00;96959.00;;;;4937099;28;87548;-59
2022/01/01 09:06:04;;;;;;;15.02;10.38;;;-0.50;91.10;-0.90;96957.00;;;;4937472;28;88108;-56
2022/01/01 09:08:35;;;;;;;12.23;10.30;;;-0.50;91.20;-0.90;96950.00;;;;4935611;28;87657;-57
2022/01/01 09:11:02;;;;;;;;;;;-0.40;91.10;-0.80;96956.00;;;;4937372;28;87648;-56
2022/01/01 09:13:29;;;;;;;11.23;10.02;;;-0.40;91.20;-0.90;96952.00;;;;4938046;28;88155;-59
2022/01/01 09:15:56;;;;;;;10.95;9.75;;;-0.40;90.90;-0.90;96944.00;;;;4936862;28;87101;-59
2022/01/01 09:18:22;;;;;;;14.25;10.27;;;-0.50;90.40;-0.90;96933.00;;;;4936461;28;89687;-58
2022/01/01 09:20:48;;;;;;;12.48;10.60;;;-0.50;90.80;-0.90;96956.00;;;;4936875;28;87604;-58
2022/01/01 09:23:15;;;;;;;17.42;10.75;;;-0.40;90.80;-0.90;96957.00;;;;4936643;28;87138;-57
2022/01/01 09:25:41;;;;;;;13.98;9.10;;;-0.50;90.70;-0.90;96940.00;;;;4936512;28;88081;-58
2022/01/01 09:28:08;;;;;;;14.80;10.55;;;-0.50;90.60;-0.90;96944.00;;;;4919649;28;87756;-57
2022/01/01 09:30:34;;;;;;;15.48;10.50;;;-0.50;90.60;-0.90;96945.00;;;;4935865;28;87395;-58
2022/01/01 09:33:00;;;;;;;11.80;9.85;;;-0.40;90.80;-0.90;96944.00;;;;4936272;28;88022;-58
2022/01/01 09:35:26;;;;;;;14.82;10.13;;;-0.40;90.70;-0.90;96954.00;;;;4920749;28;86771;-58
2022/01/01 09:37:52;;;;;;;11.82;9.40;;;-0.40;90.60;-0.90;96947.00;;;;4939198;28;87791;-58
2022/01/01 09:40:18;;;;;;;10.45;8.00;;;-0.40;90.20;-0.90;96949.00;;;;4940450;28;87737;-59
2022/01/01 09:42:46;;;;;;;11.20;8.35;;;-0.50;90.00;-1.00;96947.00;;;;4940003;28;88052;-59
2022/01/01 09:45:12;;;;;;;10.38;8.43;;;-0.50;89.80;-1.00;96934.00;;;;4929734;28;88178;-57
2022/01/01 09:47:38;;;;;;;11.65;9.65;;;-0.50;89.60;-1.00;96937.00;;;;4938421;28;88066;-55
2022/01/01 09:50:08;;;;;;;9.38;7.82;;;-0.50;90.40;-1.00;96931.00;;;;4940065;28;88087;-58
2022/01/01 09:52:35;;;;;;;10.38;7.97;;;-0.50;89.40;-1.00;96939.00;;;;4940433;28;87064;-56
2022/01/01 09:55:01;;;;;;;11.48;7.78;;;-0.50;89.20;-1.00;96935.00;;;;4923081;28;87155;-58
2022/01/01 09:57:28;;;;;;;10.25;7.72;;;-0.50;88.40;-1.00;96938.00;;;;4940105;28;88734;-59
2022/01/01 09:59:54;;;;;;;9.35;8.02;;;-0.50;88.90;-1.00;96940.00;;;;4940788;28;87284;-59
2022/01/01 10:02:20;;;;;;;12.95;7.90;;;-0.50;89.10;-0.90;96931.00;;;;4941006;28;87536;-57
2022/01/01 10:04:52;;;;;;;11.27;8.13;;;-0.50;89.10;-0.90;96923.00;;;;4939575;28;87559;-59
2022/01/01 10:07:28;;;;;;;10.80;8.57;;;-0.50;88.80;-1.00;96931.00;;;;4939142;28;88605;-59
2022/01/01 10:09:55;;;;;;;14.70;8.27;;;-0.50;88.90;-0.90;96933.00;;;;4940926;28;88380;-59
2022/01/01 10:12:41;;;;;;;11.75;7.47;;;-0.50;88.90;-1.00;96934.00;;;;4931127;28;87462;-59
2022/01/01 10:15:08;;;;;;;9.27;6.03;;;-0.50;87.80;-1.00;96935.00;;;;4939265;28;87128;-59
2022/01/01 10:17:34;;;;;;;11.73;6.85;;;-0.50;87.50;-1.00;96928.00;;;;4939680;28;88346;-59
2022/01/01 10:20:04;;;;;;;9.00;7.35;;;-0.50;87.80;-1.00;96929.00;;;;4939295;28;88855;-58
2022/01/01 10:22:30;;;;;;;6.82;5.13;;;-0.50;87.40;-1.00;96928.00;;;;4939108;28;86987;-60
2022/01/01 10:28:01;;;;;;;6.88;4.50;;;-0.50;87.10;-1.00;96928.00;;;;4922498;28;88256;-59
2022/01/01 10:30:38;;;;;;;7.45;4.78;;;-0.60;85.10;-1.00;96925.00;;;;4939595;28;87733;-60
2022/01/01 10:33:12;;;;;;;6.30;4.22;;;-0.50;85.40;-1.10;96922.00;;;;4939548;28;87933;-58
2022/01/01 10:35:48;;;;;;;7.28;4.25;;;-0.60;84.70;-1.10;96930.00;;;;4939377;28;87415;-55
2022/01/01 10:38:20;;;;;;;7.40;4.10;;;-0.60;85.00;-1.10;96937.00;;;;4922808;28;88207;-58
2022/01/01 10:40:46;;;;;;;7.57;3.83;;;-0.60;84.20;-1.10;96928.00;;;;4939726;28;87853;-58
2022/01/01 10:43:16;;;;;;;12.52;4.85;;;-0.60;84.30;-1.10;96931.00;;;;4923056;28;88246;-57
2022/01/01 10:45:48;;;;;;;6.10;4.03;;;-0.60;84.70;-1.10;96930.00;;;;4938428;28;87105;-57
2022/01/01 10:48:24;;;;;;;7.78;4.40;;;-0.60;84.60;-1.10;96932.00;;;;4939396;28;88810;-59
2022/01/01 10:50:54;;;;;;;6.45;4.72;;;-0.60;85.00;-1.10;96930.00;;;;4939424;28;88107;-58